sensor_id;sensor_type;location;lat;lon;timestamp;temperature;humidity
70676;DHT22;59069;52.242;20.900;2023-03-14T00:01:16;10.29;65.58
70676;DHT22;59069;52.242;20.900;2023-03-14T00:03:43;10.28;65.53
70676;DHT22;59069;52.242;20.900;2023-03-14T00:06:09;10.23;65.47
70676;DHT22;59069;52.242;20.900;2023-03-14T00:08:35;10.23;65.58
70676;DHT22;59069;52.242;20.900;2023-03-14T00:11:09;10.20;65.63
70676;DHT22;59069;52.242;20.900;2023-03-14T00:13:35;10.16;65.57
70676;DHT22;59069;52.242;20.900;2023-03-14T00:16:06;10.14;65.61
70676;DHT22;59069;52.242;20.900;2023-03-14T00:18:32;10.13;65.70
70676;DHT22;59069;52.242;20.900;2023-03-14T00:20:59;10.09;65.63
70676;DHT22;59069;52.242;20.900;2023-03-14T00:23:26;10.05;65.68
70676;DHT22;59069;52.242;20.900;2023-03-14T00:25:51;10.06;65.74
70676;DHT22;59069;52.242;20.900;2023-03-14T00:28:17;10.08;65.63
70676;DHT22;59069;52.242;20.900;2023-03-14T00:30:43;10.03;65.62
70676;DHT22;59069;52.242;20.900;2023-03-14T00:33:08;10.00;65.61
70676;DHT22;59069;52.242;20.900;2023-03-14T00:35:34;10.00;65.51
70676;DHT22;59069;52.242;20.900;2023-03-14T00:37:59;9.98;65.53
70676;DHT22;59069;52.242;20.900;2023-03-14T00:40:25;9.99;65.49
70676;DHT22;59069;52.242;20.900;2023-03-14T00:42:50;9.98;65.43
70676;DHT22;59069;52.242;20.900;2023-03-14T00:45:16;9.96;65.40
70676;DHT22;59069;52.242;20.900;2023-03-14T00:47:42;9.92;65.54
70676;DHT22;59069;52.242;20.900;2023-03-14T00:50:11;9.89;65.63
70676;DHT22;59069;52.242;20.900;2023-03-14T00:52:36;9.85;65.75
70676;DHT22;59069;52.242;20.900;2023-03-14T00:55:02;9.81;65.82
70676;DHT22;59069;52.242;20.900;2023-03-14T00:57:28;9.78;65.84
70676;DHT22;59069;52.242;20.900;2023-03-14T00:59:53;9.75;65.95
70676;DHT22;59069;52.242;20.900;2023-03-14T01:02:19;9.72;65.89
70676;DHT22;59069;52.242;20.900;2023-03-14T01:04:47;9.67;66.04
70676;DHT22;59069;52.242;20.900;2023-03-14T01:07:13;9.63;66.30
70676;DHT22;59069;52.242;20.900;2023-03-14T01:09:39;9.58;66.24
70676;DHT22;59069;52.242;20.900;2023-03-14T01:12:04;9.57;66.35
70676;DHT22;59069;52.242;20.900;2023-03-14T01:14:30;9.52;66.42
70676;DHT22;59069;52.242;20.900;2023-03-14T01:16:55;9.51;66.56
70676;DHT22;59069;52.242;20.900;2023-03-14T01:19:26;9.47;66.51
70676;DHT22;59069;52.242;20.900;2023-03-14T01:21:52;9.45;66.53
70676;DHT22;59069;52.242;20.900;2023-03-14T01:24:18;9.39;66.54
70676;DHT22;59069;52.242;20.900;2023-03-14T01:26:43;9.35;66.47
70676;DHT22;59069;52.242;20.900;2023-03-14T01:29:09;9.30;66.76
70676;DHT22;59069;52.242;20.900;2023-03-14T01:31:34;9.28;66.84
70676;DHT22;59069;52.242;20.900;2023-03-14T01:34:00;9.26;66.94
70676;DHT22;59069;52.242;20.900;2023-03-14T01:36:26;9.20;67.12
70676;DHT22;59069;52.242;20.900;2023-03-14T01:38:52;9.18;67.22
70676;DHT22;59069;52.242;20.900;2023-03-14T01:41:22;9.13;67.27
70676;DHT22;59069;52.242;20.900;2023-03-14T01:43:48;9.07;67.41
70676;DHT22;59069;52.242;20.900;2023-03-14T01:49:13;8.97;67.70
70676;DHT22;59069;52.242;20.900;2023-03-14T01:54:20;8.86;68.02
70676;DHT22;59069;52.242;20.900;2023-03-14T01:56:58;8.81;67.88
70676;DHT22;59069;52.242;20.900;2023-03-14T01:59:29;8.80;68.15
70676;DHT22;59069;52.242;20.900;2023-03-14T02:01:55;8.75;68.22
70676;DHT22;59069;52.242;20.900;2023-03-14T02:04:22;8.73;68.38
70676;DHT22;59069;52.242;20.900;2023-03-14T02:06:58;8.69;68.41
70676;DHT22;59069;52.242;20.900;2023-03-14T02:09:25;8.65;68.44
70676;DHT22;59069;52.242;20.900;2023-03-14T02:11:51;8.63;68.38
70676;DHT22;59069;52.242;20.900;2023-03-14T02:14:30;8.59;68.45
70676;DHT22;59069;52.242;20.900;2023-03-14T02:16:56;8.53;68.56
70676;DHT22;59069;52.242;20.900;2023-03-14T02:19:30;8.50;68.76
70676;DHT22;59069;52.242;20.900;2023-03-14T02:22:12;8.46;68.82
70676;DHT22;59069;52.242;20.900;2023-03-14T02:27:21;8.42;68.84
70676;DHT22;59069;52.242;20.900;2023-03-14T02:32:23;8.39;68.90
70676;DHT22;59069;52.242;20.900;2023-03-14T02:34:54;8.34;68.83
70676;DHT22;59069;52.242;20.900;2023-03-14T02:37:23;8.31;68.93
70676;DHT22;59069;52.242;20.900;2023-03-14T02:39:49;8.29;69.06
70676;DHT22;59069;52.242;20.900;2023-03-14T02:42:15;8.26;69.12
70676;DHT22;59069;52.242;20.900;2023-03-14T02:47:33;8.22;69.12
70676;DHT22;59069;52.242;20.900;2023-03-14T02:50:05;8.21;69.18
70676;DHT22;59069;52.242;20.900;2023-03-14T02:52:32;8.18;69.36
70676;DHT22;59069;52.242;20.900;2023-03-14T02:54:57;8.20;69.23
70676;DHT22;59069;52.242;20.900;2023-03-14T02:57:23;8.21;69.15
70676;DHT22;59069;52.242;20.900;2023-03-14T02:59:48;8.22;69.00
70676;DHT22;59069;52.242;20.900;2023-03-14T03:02:14;8.22;68.75
70676;DHT22;59069;52.242;20.900;2023-03-14T03:04:39;8.22;68.62
70676;DHT22;59069;52.242;20.900;2023-03-14T03:07:05;8.21;68.53
70676;DHT22;59069;52.242;20.900;2023-03-14T03:09:30;8.18;68.52
70676;DHT22;59069;52.242;20.900;2023-03-14T03:11:56;8.16;68.59
70676;DHT22;59069;52.242;20.900;2023-03-14T03:14:21;8.11;68.58
70676;DHT22;59069;52.242;20.900;2023-03-14T03:16:47;8.11;68.56
70676;DHT22;59069;52.242;20.900;2023-03-14T03:19:12;8.05;68.55
70676;DHT22;59069;52.242;20.900;2023-03-14T03:21:39;8.01;68.62
70676;DHT22;59069;52.242;20.900;2023-03-14T03:24:05;7.99;68.72
70676;DHT22;59069;52.242;20.900;2023-03-14T03:26:35;7.98;68.83
70676;DHT22;59069;52.242;20.900;2023-03-14T03:29:01;7.93;68.91
70676;DHT22;59069;52.242;20.900;2023-03-14T03:31:27;7.91;68.98
70676;DHT22;59069;52.242;20.900;2023-03-14T03:33:53;7.87;69.02
70676;DHT22;59069;52.242;20.900;2023-03-14T03:36:23;7.85;69.09
70676;DHT22;59069;52.242;20.900;2023-03-14T03:38:49;7.83;69.07
70676;DHT22;59069;52.242;20.900;2023-03-14T03:41:15;7.81;69.08
70676;DHT22;59069;52.242;20.900;2023-03-14T03:43:40;7.77;69.16
70676;DHT22;59069;52.242;20.900;2023-03-14T03:46:07;7.75;69.26
70676;DHT22;59069;52.242;20.900;2023-03-14T03:48:33;7.73;69.26
70676;DHT22;59069;52.242;20.900;2023-03-14T03:50:59;7.69;69.20
70676;DHT22;59069;52.242;20.900;2023-03-14T03:53:25;7.69;69.35
70676;DHT22;59069;52.242;20.900;2023-03-14T03:55:50;7.70;69.28
70676;DHT22;59069;52.242;20.900;2023-03-14T03:58:16;7.67;69.09
70676;DHT22;59069;52.242;20.900;2023-03-14T04:00:41;7.69;69.10
70676;DHT22;59069;52.242;20.900;2023-03-14T04:03:07;7.66;69.00
70676;DHT22;59069;52.242;20.900;2023-03-14T04:05:32;7.67;69.07
70676;DHT22;59069;52.242;20.900;2023-03-14T04:07:59;7.62;68.94
70676;DHT22;59069;52.242;20.900;2023-03-14T04:10:25;7.63;69.05
70676;DHT22;59069;52.242;20.900;2023-03-14T04:12:51;7.62;69.01
70676;DHT22;59069;52.242;20.900;2023-03-14T04:15:17;7.59;68.96
70676;DHT22;59069;52.242;20.900;2023-03-14T04:17:43;7.59;68.95
70676;DHT22;59069;52.242;20.900;2023-03-14T04:20:09;7.56;68.88
70676;DHT22;59069;52.242;20.900;2023-03-14T04:22:38;7.57;68.80
70676;DHT22;59069;52.242;20.900;2023-03-14T04:25:04;7.57;68.84
70676;DHT22;59069;52.242;20.900;2023-03-14T04:27:29;7.56;68.90
70676;DHT22;59069;52.242;20.900;2023-03-14T04:29:55;7.56;68.85
70676;DHT22;59069;52.242;20.900;2023-03-14T04:32:21;7.57;68.87
70676;DHT22;59069;52.242;20.900;2023-03-14T04:34:46;7.59;68.82
70676;DHT22;59069;52.242;20.900;2023-03-14T04:37:12;7.60;68.66
70676;DHT22;59069;52.242;20.900;2023-03-14T04:39:37;7.64;68.53
70676;DHT22;59069;52.242;20.900;2023-03-14T04:42:03;7.62;68.46
70676;DHT22;59069;52.242;20.900;2023-03-14T04:44:28;7.64;68.51
70676;DHT22;59069;52.242;20.900;2023-03-14T04:46:54;7.64;68.55
70676;DHT22;59069;52.242;20.900;2023-03-14T04:49:20;7.64;68.52
70676;DHT22;59069;52.242;20.900;2023-03-14T04:51:45;7.67;68.50
70676;DHT22;59069;52.242;20.900;2023-03-14T04:54:11;7.69;68.49
70676;DHT22;59069;52.242;20.900;2023-03-14T04:56:36;7.70;68.38
70676;DHT22;59069;52.242;20.900;2023-03-14T04:59:03;7.74;68.19
70676;DHT22;59069;52.242;20.900;2023-03-14T05:01:28;7.75;68.01
70676;DHT22;59069;52.242;20.900;2023-03-14T05:03:54;7.75;67.90
70676;DHT22;59069;52.242;20.900;2023-03-14T05:06:19;7.77;67.79
70676;DHT22;59069;52.242;20.900;2023-03-14T05:08:45;7.77;67.74
70676;DHT22;59069;52.242;20.900;2023-03-14T05:11:11;7.81;67.67
70676;DHT22;59069;52.242;20.900;2023-03-14T05:13:38;7.81;67.66
70676;DHT22;59069;52.242;20.900;2023-03-14T05:16:08;7.85;67.60
70676;DHT22;59069;52.242;20.900;2023-03-14T05:18:34;7.90;67.45
70676;DHT22;59069;52.242;20.900;2023-03-14T05:21:00;7.94;67.28
70676;DHT22;59069;52.242;20.900;2023-03-14T05:23:25;7.95;67.21
70676;DHT22;59069;52.242;20.900;2023-03-14T05:25:51;7.98;67.11
70676;DHT22;59069;52.242;20.900;2023-03-14T05:28:17;8.01;66.95
70676;DHT22;59069;52.242;20.900;2023-03-14T05:30:42;8.01;66.75
70676;DHT22;59069;52.242;20.900;2023-03-14T05:33:08;8.01;66.64
70676;DHT22;59069;52.242;20.900;2023-03-14T05:35:33;8.01;66.52
70676;DHT22;59069;52.242;20.900;2023-03-14T05:37:59;8.01;66.59
70676;DHT22;59069;52.242;20.900;2023-03-14T05:40:25;7.98;66.65
70676;DHT22;59069;52.242;20.900;2023-03-14T05:42:50;8.01;66.91
70676;DHT22;59069;52.242;20.900;2023-03-14T05:45:17;8.09;67.08
70676;DHT22;59069;52.242;20.900;2023-03-14T05:47:43;8.12;66.88
70676;DHT22;59069;52.242;20.900;2023-03-14T05:50:09;8.18;66.65
70676;DHT22;59069;52.242;20.900;2023-03-14T05:52:35;8.28;66.75
70676;DHT22;59069;52.242;20.900;2023-03-14T05:55:00;8.45;66.60
70676;DHT22;59069;52.242;20.900;2023-03-14T05:57:26;8.59;66.35
70676;DHT22;59069;52.242;20.900;2023-03-14T05:59:51;8.77;65.90
70676;DHT22;59069;52.242;20.900;2023-03-14T06:02:17;8.90;65.53
70676;DHT22;59069;52.242;20.900;2023-03-14T06:04:42;9.04;64.97
70676;DHT22;59069;52.242;20.900;2023-03-14T06:07:08;9.21;64.49
70676;DHT22;59069;52.242;20.900;2023-03-14T06:09:34;9.39;63.98
70676;DHT22;59069;52.242;20.900;2023-03-14T06:11:59;9.41;62.85
70676;DHT22;59069;52.242;20.900;2023-03-14T06:14:25;9.37;62.06
70676;DHT22;59069;52.242;20.900;2023-03-14T06:16:50;9.28;61.96
70676;DHT22;59069;52.242;20.900;2023-03-14T06:19:16;9.18;62.24
70676;DHT22;59069;52.242;20.900;2023-03-14T06:21:42;9.14;62.60
70676;DHT22;59069;52.242;20.900;2023-03-14T06:24:07;9.10;62.68
70676;DHT22;59069;52.242;20.900;2023-03-14T06:26:33;9.07;62.61
70676;DHT22;59069;52.242;20.900;2023-03-14T06:28:58;9.07;62.80
70676;DHT22;59069;52.242;20.900;2023-03-14T06:31:31;9.17;63.27
70676;DHT22;59069;52.242;20.900;2023-03-14T06:33:56;9.35;63.73
70676;DHT22;59069;52.242;20.900;2023-03-14T06:36:22;9.51;62.84
70676;DHT22;59069;52.242;20.900;2023-03-14T06:38:48;9.74;62.78
70676;DHT22;59069;52.242;20.900;2023-03-14T06:41:13;9.86;61.85
70676;DHT22;59069;52.242;20.900;2023-03-14T06:43:39;9.99;61.26
70676;DHT22;59069;52.242;20.900;2023-03-14T06:46:04;10.23;62.33
70676;DHT22;59069;52.242;20.900;2023-03-14T06:48:30;10.50;61.88
70676;DHT22;59069;52.242;20.900;2023-03-14T06:50:56;10.80;61.86
70676;DHT22;59069;52.242;20.900;2023-03-14T06:53:21;11.09;61.06
70676;DHT22;59069;52.242;20.900;2023-03-14T06:55:47;11.23;58.36
70676;DHT22;59069;52.242;20.900;2023-03-14T06:58:12;11.31;57.73
70676;DHT22;59069;52.242;20.900;2023-03-14T07:00:38;11.39;57.37
70676;DHT22;59069;52.242;20.900;2023-03-14T07:03:04;11.42;56.98
70676;DHT22;59069;52.242;20.900;2023-03-14T07:05:29;11.50;56.73
70676;DHT22;59069;52.242;20.900;2023-03-14T07:07:55;11.59;56.63
70676;DHT22;59069;52.242;20.900;2023-03-14T07:10:21;11.67;56.49
70676;DHT22;59069;52.242;20.900;2023-03-14T07:12:46;11.77;56.11
70676;DHT22;59069;52.242;20.900;2023-03-14T07:15:12;11.83;56.06
70676;DHT22;59069;52.242;20.900;2023-03-14T07:17:38;11.86;55.60
70676;DHT22;59069;52.242;20.900;2023-03-14T07:20:03;12.03;56.32
70676;DHT22;59069;52.242;20.900;2023-03-14T07:22:30;12.32;56.55
70676;DHT22;59069;52.242;20.900;2023-03-14T07:24:55;12.65;56.39
70676;DHT22;59069;52.242;20.900;2023-03-14T07:27:21;13.03;55.21
70676;DHT22;59069;52.242;20.900;2023-03-14T07:29:46;13.39;53.88
70676;DHT22;59069;52.242;20.900;2023-03-14T07:32:12;13.70;53.46
70676;DHT22;59069;52.242;20.900;2023-03-14T07:34:41;14.06;52.73
70676;DHT22;59069;52.242;20.900;2023-03-14T07:37:06;14.42;51.24
70676;DHT22;59069;52.242;20.900;2023-03-14T07:39:32;14.56;49.89
70676;DHT22;59069;52.242;20.900;2023-03-14T07:41:57;14.60;47.81
70676;DHT22;59069;52.242;20.900;2023-03-14T07:44:23;14.60;48.05
70676;DHT22;59069;52.242;20.900;2023-03-14T07:46:48;14.55;47.70
70676;DHT22;59069;52.242;20.900;2023-03-14T07:49:14;14.56;48.54
70676;DHT22;59069;52.242;20.900;2023-03-14T07:51:39;14.70;47.71
70676;DHT22;59069;52.242;20.900;2023-03-14T07:54:05;14.84;48.49
70676;DHT22;59069;52.242;20.900;2023-03-14T07:56:30;15.07;49.01
70676;DHT22;59069;52.242;20.900;2023-03-14T07:58:56;15.32;47.43
70676;DHT22;59069;52.242;20.900;2023-03-14T08:01:22;15.47;46.46
70676;DHT22;59069;52.242;20.900;2023-03-14T08:03:48;15.59;46.36
70676;DHT22;59069;52.242;20.900;2023-03-14T08:06:13;15.79;47.05
70676;DHT22;59069;52.242;20.900;2023-03-14T08:08:39;16.14;47.01
70676;DHT22;59069;52.242;20.900;2023-03-14T08:11:05;16.50;47.35
70676;DHT22;59069;52.242;20.900;2023-03-14T08:13:34;16.67;44.57
70676;DHT22;59069;52.242;20.900;2023-03-14T08:16:00;16.63;42.49
70676;DHT22;59069;52.242;20.900;2023-03-14T08:18:25;16.61;43.05
70676;DHT22;59069;52.242;20.900;2023-03-14T08:20:51;16.71;45.36
70676;DHT22;59069;52.242;20.900;2023-03-14T08:23:16;16.78;43.17
70676;DHT22;59069;52.242;20.900;2023-03-14T08:25:42;16.77;43.02
70676;DHT22;59069;52.242;20.900;2023-03-14T08:28:08;16.65;41.89
70676;DHT22;59069;52.242;20.900;2023-03-14T08:30:34;16.54;42.62
70676;DHT22;59069;52.242;20.900;2023-03-14T08:32:59;16.56;44.21
70676;DHT22;59069;52.242;20.900;2023-03-14T08:35:26;16.51;42.61
70676;DHT22;59069;52.242;20.900;2023-03-14T08:37:51;16.40;42.60
70676;DHT22;59069;52.242;20.900;2023-03-14T08:40:18;16.37;43.66
70676;DHT22;59069;52.242;20.900;2023-03-14T08:42:43;16.34;44.26
70676;DHT22;59069;52.242;20.900;2023-03-14T08:45:12;16.37;43.76
70676;DHT22;59069;52.242;20.900;2023-03-14T08:47:38;16.54;45.02
70676;DHT22;59069;52.242;20.900;2023-03-14T08:50:05;16.89;45.62
70676;DHT22;59069;52.242;20.900;2023-03-14T08:52:31;17.42;45.14
70676;DHT22;59069;52.242;20.900;2023-03-14T08:54:57;17.96;44.72
70676;DHT22;59069;52.242;20.900;2023-03-14T08:57:23;18.00;37.63
70676;DHT22;59069;52.242;20.900;2023-03-14T08:59:56;18.20;43.11
70676;DHT22;59069;52.242;20.900;2023-03-14T09:02:23;18.66;40.93
70676;DHT22;59069;52.242;20.900;2023-03-14T09:04:52;18.62;36.95
70676;DHT22;59069;52.242;20.900;2023-03-14T09:07:18;18.51;37.81
70676;DHT22;59069;52.242;20.900;2023-03-14T09:09:44;18.34;38.02
70676;DHT22;59069;52.242;20.900;2023-03-14T09:12:10;17.96;38.44
70676;DHT22;59069;52.242;20.900;2023-03-14T09:14:36;17.71;39.19
70676;DHT22;59069;52.242;20.900;2023-03-14T09:17:03;17.49;40.22
70676;DHT22;59069;52.242;20.900;2023-03-14T09:19:29;17.28;40.97
70676;DHT22;59069;52.242;20.900;2023-03-14T09:21:54;17.25;41.92
70676;DHT22;59069;52.242;20.900;2023-03-14T09:24:20;17.38;42.28
70676;DHT22;59069;52.242;20.900;2023-03-14T09:26:45;17.47;41.91
70676;DHT22;59069;52.242;20.900;2023-03-14T09:29:11;17.56;41.20
70676;DHT22;59069;52.242;20.900;2023-03-14T09:31:36;17.71;41.43
70676;DHT22;59069;52.242;20.900;2023-03-14T09:34:02;17.90;41.17
70676;DHT22;59069;52.242;20.900;2023-03-14T09:36:28;17.81;39.53
70676;DHT22;59069;52.242;20.900;2023-03-14T09:38:53;17.62;39.78
70676;DHT22;59069;52.242;20.900;2023-03-14T09:41:26;17.46;40.66
70676;DHT22;59069;52.242;20.900;2023-03-14T09:44:08;17.28;41.02
70676;DHT22;59069;52.242;20.900;2023-03-14T09:46:36;17.35;42.04
70676;DHT22;59069;52.242;20.900;2023-03-14T09:49:42;17.52;42.43
70676;DHT22;59069;52.242;20.900;2023-03-14T09:52:06;17.53;40.74
70676;DHT22;59069;52.242;20.900;2023-03-14T09:54:37;17.57;40.44
70676;DHT22;59069;52.242;20.900;2023-03-14T09:57:06;17.69;42.30
70676;DHT22;59069;52.242;20.900;2023-03-14T09:59:35;18.11;43.59
70676;DHT22;59069;52.242;20.900;2023-03-14T10:02:13;18.59;40.93
70676;DHT22;59069;52.242;20.900;2023-03-14T10:04:40;18.86;39.02
70676;DHT22;59069;52.242;20.900;2023-03-14T10:07:14;18.93;38.00
70676;DHT22;59069;52.242;20.900;2023-03-14T10:09:43;18.76;37.44
70676;DHT22;59069;52.242;20.900;2023-03-14T10:12:09;18.42;38.21
70676;DHT22;59069;52.242;20.900;2023-03-14T10:14:53;18.11;39.32
70676;DHT22;59069;52.242;20.900;2023-03-14T10:17:20;17.91;39.91
70676;DHT22;59069;52.242;20.900;2023-03-14T10:19:53;17.70;40.49
70676;DHT22;59069;52.242;20.900;2023-03-14T10:22:19;17.57;41.16
70676;DHT22;59069;52.242;20.900;2023-03-14T10:24:46;17.62;42.38
70676;DHT22;59069;52.242;20.900;2023-03-14T10:27:35;17.53;41.20
70676;DHT22;59069;52.242;20.900;2023-03-14T10:30:07;17.32;41.46
70676;DHT22;59069;52.242;20.900;2023-03-14T10:32:38;17.14;42.01
70676;DHT22;59069;52.242;20.900;2023-03-14T10:37:31;16.96;43.53
70676;DHT22;59069;52.242;20.900;2023-03-14T10:40:02;17.04;43.48
70676;DHT22;59069;52.242;20.900;2023-03-14T10:42:42;17.15;44.11
70676;DHT22;59069;52.242;20.900;2023-03-14T10:45:43;17.57;46.20
70676;DHT22;59069;52.242;20.900;2023-03-14T10:48:22;18.25;42.27
70676;DHT22;59069;52.242;20.900;2023-03-14T10:50:57;18.44;39.40
70676;DHT22;59069;52.242;20.900;2023-03-14T10:53:24;18.38;39.43
70676;DHT22;59069;52.242;20.900;2023-03-14T10:55:50;18.15;40.14
70676;DHT22;59069;52.242;20.900;2023-03-14T10:58:29;17.94;40.52
70676;DHT22;59069;52.242;20.900;2023-03-14T11:01:24;17.73;41.09
70676;DHT22;59069;52.242;20.900;2023-03-14T11:03:59;17.50;41.33
70676;DHT22;59069;52.242;20.900;2023-03-14T11:06:36;17.22;41.90
70676;DHT22;59069;52.242;20.900;2023-03-14T11:09:18;16.98;42.63
70676;DHT22;59069;52.242;20.900;2023-03-14T11:11:47;16.71;43.29
70676;DHT22;59069;52.242;20.900;2023-03-14T11:14:31;16.51;43.78
70676;DHT22;59069;52.242;20.900;2023-03-14T11:17:05;16.33;44.09
70676;DHT22;59069;52.242;20.900;2023-03-14T11:22:50;15.93;45.08
70676;DHT22;59069;52.242;20.900;2023-03-14T11:30:54;15.49;46.34
70676;DHT22;59069;52.242;20.900;2023-03-14T11:33:27;15.38;46.65
70676;DHT22;59069;52.242;20.900;2023-03-14T11:36:13;15.32;46.95
70676;DHT22;59069;52.242;20.900;2023-03-14T11:38:58;15.30;47.07
70676;DHT22;59069;52.242;20.900;2023-03-14T11:41:34;15.28;47.29
70676;DHT22;59069;52.242;20.900;2023-03-14T11:44:09;15.32;47.54
70676;DHT22;59069;52.242;20.900;2023-03-14T11:46:42;15.39;47.77
70676;DHT22;59069;52.242;20.900;2023-03-14T11:52:04;15.58;47.62
70676;DHT22;59069;52.242;20.900;2023-03-14T11:54:41;15.65;47.43
70676;DHT22;59069;52.242;20.900;2023-03-14T11:57:16;15.63;47.34
70676;DHT22;59069;52.242;20.900;2023-03-14T12:00:05;15.63;47.33
70676;DHT22;59069;52.242;20.900;2023-03-14T12:10:40;15.97;48.25
70676;DHT22;59069;52.242;20.900;2023-03-14T12:13:13;16.20;47.59
70676;DHT22;59069;52.242;20.900;2023-03-14T12:15:42;16.26;46.56
70676;DHT22;59069;52.242;20.900;2023-03-14T12:21:00;16.05;46.53
70676;DHT22;59069;52.242;20.900;2023-03-14T12:23:28;15.89;46.89
70676;DHT22;59069;52.242;20.900;2023-03-14T12:26:17;15.68;47.27
70676;DHT22;59069;52.242;20.900;2023-03-14T12:31:42;15.35;48.37
70676;DHT22;59069;52.242;20.900;2023-03-14T12:42:20;14.93;50.63
70676;DHT22;59069;52.242;20.900;2023-03-14T12:44:49;14.84;51.09
70676;DHT22;59069;52.242;20.900;2023-03-14T12:49:44;14.56;52.30
70676;DHT22;59069;52.242;20.900;2023-03-14T12:52:20;14.40;52.96
70676;DHT22;59069;52.242;20.900;2023-03-14T12:54:51;14.24;53.70
70676;DHT22;59069;52.242;20.900;2023-03-14T12:59:58;13.88;55.67
70676;DHT22;59069;52.242;20.900;2023-03-14T13:02:38;13.75;56.33
70676;DHT22;59069;52.242;20.900;2023-03-14T13:05:34;13.64;57.47
70676;DHT22;59069;52.242;20.900;2023-03-14T13:10:29;13.48;58.83
70676;DHT22;59069;52.242;20.900;2023-03-14T13:15:47;13.39;60.23
70676;DHT22;59069;52.242;20.900;2023-03-14T13:18:18;13.33;60.70
70676;DHT22;59069;52.242;20.900;2023-03-14T13:20:53;13.26;61.24
70676;DHT22;59069;52.242;20.900;2023-03-14T13:23:27;13.19;61.73
70676;DHT22;59069;52.242;20.900;2023-03-14T13:25:54;13.07;62.32
70676;DHT22;59069;52.242;20.900;2023-03-14T13:28:20;13.00;62.89
70676;DHT22;59069;52.242;20.900;2023-03-14T13:30:50;12.95;63.44
70676;DHT22;59069;52.242;20.900;2023-03-14T13:33:21;12.86;63.96
70676;DHT22;59069;52.242;20.900;2023-03-14T13:35:54;12.82;64.50
70676;DHT22;59069;52.242;20.900;2023-03-14T13:38:23;12.73;65.16
70676;DHT22;59069;52.242;20.900;2023-03-14T13:40:51;12.62;65.82
70676;DHT22;59069;52.242;20.900;2023-03-14T13:43:21;12.52;66.57
70676;DHT22;59069;52.242;20.900;2023-03-14T13:45:55;12.45;67.40
70676;DHT22;59069;52.242;20.900;2023-03-14T13:48:25;12.35;68.12
70676;DHT22;59069;52.242;20.900;2023-03-14T13:50:58;12.28;68.83
70676;DHT22;59069;52.242;20.900;2023-03-14T13:53:24;12.21;69.44
70676;DHT22;59069;52.242;20.900;2023-03-14T13:55:51;12.17;70.02
70676;DHT22;59069;52.242;20.900;2023-03-14T13:58:26;12.13;70.54
70676;DHT22;59069;52.242;20.900;2023-03-14T14:04:09;12.07;71.35
70676;DHT22;59069;52.242;20.900;2023-03-14T14:06:45;12.01;71.60
70676;DHT22;59069;52.242;20.900;2023-03-14T14:09:15;12.01;71.83
70676;DHT22;59069;52.242;20.900;2023-03-14T14:11:54;11.98;72.22
70676;DHT22;59069;52.242;20.900;2023-03-14T14:16:56;11.93;72.57
70676;DHT22;59069;52.242;20.900;2023-03-14T14:19:26;11.93;72.91
70676;DHT22;59069;52.242;20.900;2023-03-14T14:21:53;11.95;73.45
70676;DHT22;59069;52.242;20.900;2023-03-14T14:24:21;11.95;73.86
70676;DHT22;59069;52.242;20.900;2023-03-14T14:26:52;11.94;74.18
70676;DHT22;59069;52.242;20.900;2023-03-14T14:29:28;11.95;74.13
70676;DHT22;59069;52.242;20.900;2023-03-14T14:32:20;11.94;74.24
70676;DHT22;59069;52.242;20.900;2023-03-14T14:34:55;11.89;74.36
70676;DHT22;59069;52.242;20.900;2023-03-14T14:37:25;11.91;74.44
70676;DHT22;59069;52.242;20.900;2023-03-14T14:39:54;11.90;74.57
70676;DHT22;59069;52.242;20.900;2023-03-14T14:42:23;11.89;74.64
70676;DHT22;59069;52.242;20.900;2023-03-14T14:44:51;11.89;74.73
70676;DHT22;59069;52.242;20.900;2023-03-14T14:47:24;11.84;74.75
70676;DHT22;59069;52.242;20.900;2023-03-14T14:49:52;11.86;74.85
70676;DHT22;59069;52.242;20.900;2023-03-14T14:52:31;11.86;74.82
70676;DHT22;59069;52.242;20.900;2023-03-14T14:54:59;11.83;74.84
70676;DHT22;59069;52.242;20.900;2023-03-14T14:57:27;11.84;74.81
70676;DHT22;59069;52.242;20.900;2023-03-14T15:00:00;11.82;74.64
70676;DHT22;59069;52.242;20.900;2023-03-14T15:02:37;11.76;74.65
70676;DHT22;59069;52.242;20.900;2023-03-14T15:05:14;11.70;74.83
70676;DHT22;59069;52.242;20.900;2023-03-14T15:07:41;11.72;75.09
70676;DHT22;59069;52.242;20.900;2023-03-14T15:10:18;11.66;75.44
70676;DHT22;59069;52.242;20.900;2023-03-14T15:12:45;11.63;75.71
70676;DHT22;59069;52.242;20.900;2023-03-14T15:15:12;11.63;75.78
70676;DHT22;59069;52.242;20.900;2023-03-14T15:17:38;11.58;75.88
70676;DHT22;59069;52.242;20.900;2023-03-14T15:20:09;11.58;75.94
70676;DHT22;59069;52.242;20.900;2023-03-14T15:22:35;11.53;76.09
70676;DHT22;59069;52.242;20.900;2023-03-14T15:25:00;11.49;76.12
70676;DHT22;59069;52.242;20.900;2023-03-14T15:27:27;11.43;76.26
70676;DHT22;59069;52.242;20.900;2023-03-14T15:29:54;11.42;76.27
70676;DHT22;59069;52.242;20.900;2023-03-14T15:32:19;11.38;76.38
70676;DHT22;59069;52.242;20.900;2023-03-14T15:34:45;11.38;76.37
70676;DHT22;59069;52.242;20.900;2023-03-14T15:37:15;11.33;76.43
70676;DHT22;59069;52.242;20.900;2023-03-14T15:39:44;11.29;76.57
70676;DHT22;59069;52.242;20.900;2023-03-14T15:42:10;11.29;76.62
70676;DHT22;59069;52.242;20.900;2023-03-14T15:44:36;11.26;76.62
70676;DHT22;59069;52.242;20.900;2023-03-14T15:47:02;11.23;76.68
70676;DHT22;59069;52.242;20.900;2023-03-14T15:49:28;11.19;76.73
70676;DHT22;59069;52.242;20.900;2023-03-14T15:51:54;11.21;76.88
70676;DHT22;59069;52.242;20.900;2023-03-14T15:54:20;11.18;76.98
70676;DHT22;59069;52.242;20.900;2023-03-14T15:56:45;11.19;76.95
70676;DHT22;59069;52.242;20.900;2023-03-14T15:59:11;11.18;77.04
70676;DHT22;59069;52.242;20.900;2023-03-14T16:01:37;11.16;76.99
70676;DHT22;59069;52.242;20.900;2023-03-14T16:04:02;11.18;76.92
70676;DHT22;59069;52.242;20.900;2023-03-14T16:06:28;11.18;76.82
70676;DHT22;59069;52.242;20.900;2023-03-14T16:08:56;11.18;76.75
70676;DHT22;59069;52.242;20.900;2023-03-14T16:11:21;11.16;76.85
70676;DHT22;59069;52.242;20.900;2023-03-14T16:13:47;11.12;76.90
70676;DHT22;59069;52.242;20.900;2023-03-14T16:16:13;11.11;76.95
70676;DHT22;59069;52.242;20.900;2023-03-14T16:18:39;11.08;76.95
70676;DHT22;59069;52.242;20.900;2023-03-14T16:21:12;11.07;77.06
70676;DHT22;59069;52.242;20.900;2023-03-14T16:23:38;11.04;77.12
70676;DHT22;59069;52.242;20.900;2023-03-14T16:26:09;11.04;77.11
70676;DHT22;59069;52.242;20.900;2023-03-14T16:28:35;11.01;77.17
70676;DHT22;59069;52.242;20.900;2023-03-14T16:31:07;10.98;77.22
70676;DHT22;59069;52.242;20.900;2023-03-14T16:33:34;10.97;77.30
70676;DHT22;59069;52.242;20.900;2023-03-14T16:36:01;10.97;77.37